Time;durP1;ratioP1;P1;durP2;ratioP2;P2;SDS_P1;SDS_P2;PMS_P1;PMS_P2;Temp;Humidity;BMP_temperature;BMP_pressure;BME280_temperature;BME280_humidity;BME280_pressure;Samples;Min_cycle;Max_cycle;Signal;HPM_P1;HPM_P2
2021/03/14 00:00:31;;;;;;;11.98;1.98;;;6.20;99.90;;;;;;5092169;28;20028;-71
2021/03/14 00:02:58;;;;;;;11.02;1.15;;;6.20;99.90;;;;;;5091310;28;20024;-71
2021/03/14 00:05:24;;;;;;;9.38;1.40;;;6.20;99.90;;;;;;5091818;28;20119;-71
2021/03/14 00:07:49;;;;;;;14.18;2.67;;;6.20;99.90;;;;;;5092063;28;20116;-71
2021/03/14 00:10:16;;;;;;;6.65;1.45;;;6.30;99.90;;;;;;5091209;28;20059;-71
2021/03/14 00:12:41;;;;;;;8.07;1.65;;;6.40;99.90;;;;;;5091929;28;20032;-70
2021/03/14 00:15:08;;;;;;;11.50;1.45;;;6.40;99.90;;;;;;5091774;28;20441;-70
2021/03/14 00:17:36;;;;;;;8.50;1.10;;;6.50;99.90;;;;;;5091249;28;20024;-70
2021/03/14 00:20:05;;;;;;;8.88;2.35;;;6.70;99.90;;;;;;5091564;28;20356;-70
2021/03/14 00:22:31;;;;;;;9.93;1.33;;;6.50;99.90;;;;;;5091961;28;20024;-70
2021/03/14 00:24:56;;;;;;;19.33;2.00;;;6.50;99.90;;;;;;5090616;28;20494;-69
2021/03/14 00:27:22;;;;;;;15.77;1.90;;;6.60;99.90;;;;;;5091785;28;20071;-70
2021/03/14 00:29:47;;;;;;;12.27;1.67;;;6.50;99.90;;;;;;5091893;28;20103;-71
2021/03/14 00:32:13;;;;;;;8.30;1.42;;;6.60;99.90;;;;;;5090187;28;20024;-70
2021/03/14 00:34:38;;;;;;;9.75;1.35;;;6.60;99.90;;;;;;5091780;28;20034;-70
2021/03/14 00:37:09;;;;;;;12.05;1.77;;;6.60;99.90;;;;;;5091696;28;20440;-70
2021/03/14 00:39:34;;;;;;;11.27;1.70;;;6.60;99.90;;;;;;5091609;28;20027;-71
2021/03/14 00:42:01;;;;;;;11.60;1.38;;;6.60;99.90;;;;;;5091369;28;20056;-71
2021/03/14 00:44:26;;;;;;;12.57;2.45;;;6.60;99.90;;;;;;5091876;28;20016;-71
2021/03/14 00:46:52;;;;;;;10.35;1.50;;;6.60;99.90;;;;;;5090595;28;20043;-71
2021/03/14 00:49:19;;;;;;;8.40;1.35;;;6.60;99.90;;;;;;5092015;28;20024;-70
2021/03/14 00:51:45;;;;;;;15.68;1.90;;;6.50;99.90;;;;;;5091583;28;20032;-70
2021/03/14 00:54:11;;;;;;;16.05;1.95;;;6.50;99.90;;;;;;5090909;28;20012;-71
2021/03/14 00:56:37;;;;;;;13.27;1.63;;;6.40;99.90;;;;;;5091745;28;20038;-70
2021/03/14 00:59:03;;;;;;;11.43;1.65;;;6.50;99.90;;;;;;5091325;28;20099;-71
2021/03/14 01:01:29;;;;;;;19.52;2.92;;;6.50;99.90;;;;;;5090854;28;20380;-70
2021/03/14 01:03:54;;;;;;;18.27;2.40;;;6.50;99.90;;;;;;5092023;28;20024;-70
2021/03/14 01:06:23;;;;;;;16.83;2.10;;;6.50;99.90;;;;;;5096768;28;20107;-70
2021/03/14 01:08:54;;;;;;;11.27;1.92;;;6.60;99.90;;;;;;5091964;28;20031;-70
2021/03/14 01:11:20;;;;;;;11.80;1.70;;;6.50;99.90;;;;;;5096509;28;20563;-70
2021/03/14 01:13:45;;;;;;;11.05;1.65;;;6.50;99.90;;;;;;5101747;28;20422;-70
2021/03/14 01:16:12;;;;;;;10.60;1.27;;;6.50;99.90;;;;;;5094380;28;20024;-72
2021/03/14 01:18:38;;;;;;;7.25;1.60;;;6.50;99.90;;;;;;5094772;28;20030;-70
2021/03/14 01:21:03;;;;;;;10.65;1.75;;;6.50;99.90;;;;;;5092417;28;20028;-70
2021/03/14 01:23:29;;;;;;;12.27;2.38;;;6.50;99.90;;;;;;5091946;28;20051;-70
2021/03/14 01:25:55;;;;;;;13.73;1.45;;;6.50;99.90;;;;;;5091355;28;20020;-72
2021/03/14 01:28:20;;;;;;;11.68;2.15;;;6.40;99.90;;;;;;5090754;28;20024;-70
2021/03/14 01:30:46;;;;;;;14.38;1.90;;;6.30;99.90;;;;;;5091215;28;20031;-70
2021/03/14 01:33:12;;;;;;;9.93;1.50;;;6.30;99.90;;;;;;5090772;28;20468;-70
2021/03/14 01:35:37;;;;;;;9.43;1.70;;;6.30;99.90;;;;;;5090686;28;20016;-70
2021/03/14 01:38:03;;;;;;;15.35;2.17;;;6.30;99.90;;;;;;5090814;28;20024;-70
2021/03/14 01:40:29;;;;;;;11.98;2.05;;;6.30;99.90;;;;;;5091449;28;20021;-70
2021/03/14 01:42:57;;;;;;;11.60;2.65;;;6.30;99.90;;;;;;5090969;28;20352;-71
2021/03/14 01:45:24;;;;;;;11.48;2.25;;;6.30;99.90;;;;;;5094608;28;20016;-70
2021/03/14 01:47:51;;;;;;;6.55;1.30;;;6.30;99.90;;;;;;5094593;28;20063;-70
2021/03/14 01:50:23;;;;;;;16.73;1.85;;;6.30;99.90;;;;;;5094036;28;20017;-71
2021/03/14 01:52:50;;;;;;;17.58;2.55;;;6.40;99.90;;;;;;5094883;28;20051;-70
2021/03/14 01:55:17;;;;;;;10.25;1.60;;;6.40;99.90;;;;;;5094645;28;20035;-71
2021/03/14 01:57:44;;;;;;;12.10;2.47;;;6.30;99.90;;;;;;5093835;28;20048;-71
2021/03/14 02:00:12;;;;;;;14.32;2.13;;;6.30;99.90;;;;;;5094202;28;20020;-71
2021/03/14 02:02:38;;;;;;;7.93;1.55;;;6.40;99.90;;;;;;5097406;28;20020;-70
2021/03/14 02:05:09;;;;;;;8.02;1.65;;;6.40;99.90;;;;;;5095289;28;20032;-70
2021/03/14 02:07:36;;;;;;;17.92;1.95;;;6.30;99.90;;;;;;5097996;28;20032;-70
2021/03/14 02:10:03;;;;;;;15.52;1.67;;;6.30;99.90;;;;;;5103825;28;20028;-70
2021/03/14 02:12:57;;;;;;;9.48;2.05;;;6.30;99.90;;;;;;5103167;28;20129;-72
2021/03/14 02:15:25;;;;;;;18.83;2.03;;;6.30;99.90;;;;;;5095398;28;20376;-71
2021/03/14 02:17:53;;;;;;;12.85;1.77;;;6.30;99.90;;;;;;5093317;28;20407;-71
2021/03/14 02:20:23;;;;;;;15.85;2.17;;;6.30;99.90;;;;;;5096949;28;20476;-71
2021/03/14 02:22:53;;;;;;;;;;;6.30;99.90;;;;;;5104649;28;20043;-71
2021/03/14 02:25:33;;;;;;;7.57;1.55;;;6.40;99.90;;;;;;5093498;28;19904;-70
2021/03/14 02:27:59;;;;;;;12.70;1.65;;;6.30;99.90;;;;;;5093980;28;20430;-70
2021/03/14 02:30:25;;;;;;;10.60;1.67;;;6.30;99.90;;;;;;5096269;28;20055;-70
2021/03/14 02:32:52;;;;;;;16.10;1.38;;;6.30;99.90;;;;;;5110004;28;20479;-71
2021/03/14 02:35:22;;;;;;;18.55;2.80;;;6.30;99.90;;;;;;5110510;28;20039;-71
2021/03/14 02:37:49;;;;;;;16.77;1.63;;;6.30;99.90;;;;;;5110963;28;20512;-70
2021/03/14 02:40:15;;;;;;;12.73;1.58;;;6.30;99.90;;;;;;5101371;28;20107;-71
2021/03/14 02:42:43;;;;;;;10.93;2.35;;;6.30;99.90;;;;;;5093544;28;20114;-69
2021/03/14 02:45:10;;;;;;;13.60;1.88;;;6.20;99.90;;;;;;5103980;28;20601;-70
2021/03/14 02:47:37;;;;;;;11.95;2.55;;;6.30;99.90;;;;;;5096246;28;20036;-70
2021/03/14 02:50:11;;;;;;;15.35;1.80;;;6.20;99.90;;;;;;5093354;28;20081;-71
2021/03/14 02:52:40;;;;;;;13.38;1.92;;;6.20;99.90;;;;;;5092932;28;20108;-71
2021/03/14 02:55:07;;;;;;;13.50;1.85;;;6.20;99.90;;;;;;5092559;28;20027;-70
2021/03/14 02:57:33;;;;;;;13.38;2.00;;;6.20;99.90;;;;;;5093250;28;20059;-70
2021/03/14 03:00:00;;;;;;;8.02;1.67;;;6.20;99.90;;;;;;5092740;28;20031;-70
2021/03/14 03:02:26;;;;;;;12.70;1.85;;;6.20;99.90;;;;;;5093454;28;20028;-70
2021/03/14 03:04:52;;;;;;;10.70;1.90;;;6.20;99.90;;;;;;5095939;28;20020;-70
2021/03/14 03:07:19;;;;;;;9.15;2.80;;;6.20;99.90;;;;;;5096877;28;20048;-70
2021/03/14 03:09:47;;;;;;;9.07;2.00;;;6.10;99.90;;;;;;5093291;28;20016;-71
2021/03/14 03:12:15;;;;;;;18.92;2.33;;;6.10;99.90;;;;;;5102067;28;20055;-71
2021/03/14 03:14:43;;;;;;;17.77;1.88;;;6.00;99.90;;;;;;5097335;28;20052;-71
2021/03/14 03:17:10;;;;;;;12.18;2.10;;;6.00;99.90;;;;;;5093327;28;20055;-70
2021/03/14 03:19:37;;;;;;;12.43;1.90;;;6.00;99.90;;;;;;5096901;28;20040;-72
2021/03/14 03:22:09;;;;;;;14.43;2.13;;;6.10;99.90;;;;;;5092312;28;20388;-70
2021/03/14 03:24:34;;;;;;;11.88;2.03;;;6.10;99.90;;;;;;5106111;28;20058;-71
2021/03/14 03:27:03;;;;;;;14.15;1.80;;;6.00;99.90;;;;;;5093199;28;20499;-70
2021/03/14 03:29:29;;;;;;;11.90;1.63;;;6.00;99.90;;;;;;5092724;28;20035;-71
2021/03/14 03:31:55;;;;;;;13.80;2.35;;;6.10;99.90;;;;;;5092632;28;20031;-70
2021/03/14 03:34:23;;;;;;;8.25;1.58;;;6.20;99.90;;;;;;5092240;28;20039;-71
2021/03/14 03:36:49;;;;;;;10.90;2.20;;;6.40;99.90;;;;;;5092429;28;20049;-70
2021/03/14 03:39:15;;;;;;;10.98;2.15;;;6.20;99.90;;;;;;5092629;28;20107;-70
2021/03/14 03:42:13;;;;;;;11.68;1.77;;;6.10;99.90;;;;;;5092089;28;20491;-71
2021/03/14 03:44:40;;;;;;;13.10;2.25;;;6.10;99.90;;;;;;5089462;28;20028;-71
2021/03/14 03:47:10;;;;;;;8.15;1.90;;;6.10;99.90;;;;;;5092064;28;20472;-70
2021/03/14 03:49:39;;;;;;;14.48;2.00;;;6.10;99.90;;;;;;5091695;28;20024;-70
2021/03/14 03:52:05;;;;;;;17.42;3.47;;;6.10;99.90;;;;;;5092109;28;20133;-71
2021/03/14 03:54:31;;;;;;;10.13;1.75;;;6.10;99.90;;;;;;5092414;28;20020;-70
2021/03/14 03:56:59;;;;;;;10.77;1.33;;;6.20;99.90;;;;;;5091722;28;20101;-70
2021/03/14 03:59:26;;;;;;;13.18;2.65;;;6.20;99.90;;;;;;5092436;28;20052;-70
2021/03/14 04:01:53;;;;;;;14.98;1.75;;;6.20;99.90;;;;;;5092122;28;20055;-71
2021/03/14 04:04:20;;;;;;;7.20;2.08;;;6.20;99.90;;;;;;5091869;28;20028;-72
2021/03/14 04:06:52;;;;;;;12.30;2.00;;;6.20;99.90;;;;;;5090941;28;20091;-72
2021/03/14 04:09:18;;;;;;;13.27;1.63;;;6.10;99.90;;;;;;5091115;28;20119;-71
2021/03/14 04:11:45;;;;;;;14.25;2.95;;;6.00;99.90;;;;;;5097022;28;20421;-71
2021/03/14 04:14:12;;;;;;;10.40;1.67;;;5.90;99.90;;;;;;5101020;28;20066;-70
2021/03/14 04:16:40;;;;;;;6.35;1.02;;;5.90;99.90;;;;;;5091506;28;20430;-69
2021/03/14 04:19:12;;;;;;;7.93;1.35;;;5.80;99.90;;;;;;5091869;28;20563;-71
2021/03/14 04:21:40;;;;;;;6.60;1.25;;;5.80;99.90;;;;;;5091435;28;20081;-71
2021/03/14 04:24:09;;;;;;;3.47;1.80;;;5.70;99.90;;;;;;5091378;28;20016;-72
2021/03/14 04:26:38;;;;;;;3.75;1.45;;;5.70;99.90;;;;;;5091934;28;20040;-72
2021/03/14 04:29:04;;;;;;;7.43;1.88;;;5.60;99.90;;;;;;5091730;28;20020;-73
2021/03/14 04:31:30;;;;;;;10.40;1.42;;;5.50;99.90;;;;;;5091231;28;20035;-71
2021/03/14 04:33:57;;;;;;;3.95;1.52;;;5.40;99.90;;;;;;5091408;28;20024;-72
2021/03/14 04:36:25;;;;;;;11.65;3.72;;;5.50;99.90;;;;;;5092198;28;20028;-71
2021/03/14 04:38:50;;;;;;;6.38;1.50;;;5.40;99.90;;;;;;5090656;28;20052;-71
2021/03/14 04:41:17;;;;;;;12.63;1.33;;;5.40;99.90;;;;;;5091993;28;20067;-71
2021/03/14 04:43:44;;;;;;;11.32;1.50;;;5.50;99.90;;;;;;5091921;28;20027;-71
2021/03/14 04:46:14;;;;;;;8.95;2.53;;;5.50;99.90;;;;;;5090852;28;20093;-71
2021/03/14 04:48:40;;;;;;;6.68;2.15;;;5.40;99.90;;;;;;5091671;28;20021;-70
2021/03/14 04:51:06;;;;;;;8.52;1.77;;;5.30;99.90;;;;;;5091554;28;20375;-70
2021/03/14 04:53:32;;;;;;;11.88;2.00;;;5.30;99.90;;;;;;5091263;28;20036;-70
2021/03/14 04:55:59;;;;;;;11.70;2.13;;;5.20;99.90;;;;;;5091540;28;20039;-71
2021/03/14 04:58:25;;;;;;;8.30;1.52;;;5.20;99.90;;;;;;5091142;28;20052;-70
2021/03/14 05:00:51;;;;;;;11.05;2.15;;;5.20;99.90;;;;;;5091438;28;20021;-70
2021/03/14 05:03:21;;;;;;;10.88;1.77;;;5.10;99.90;;;;;;5091645;28;20035;-70
2021/03/14 05:05:49;;;;;;;7.57;1.42;;;5.20;99.90;;;;;;5091510;28;20051;-70
2021/03/14 05:08:21;;;;;;;7.15;1.73;;;5.20;99.90;;;;;;5092137;28;20127;-70
2021/03/14 05:10:48;;;;;;;8.10;1.52;;;5.30;99.90;;;;;;5091931;28;20024;-70
2021/03/14 05:13:14;;;;;;;8.63;1.83;;;5.30;99.90;;;;;;5105282;28;20103;-69
2021/03/14 05:15:41;;;;;;;3.05;1.48;;;5.30;99.90;;;;;;5092391;28;20095;-69
2021/03/14 05:18:10;;;;;;;16.40;2.40;;;5.40;99.90;;;;;;5094406;28;20035;-70
2021/03/14 05:20:36;;;;;;;12.35;1.70;;;5.40;99.90;;;;;;5095891;28;20027;-70
2021/03/14 05:23:03;;;;;;;12.05;2.25;;;5.40;99.90;;;;;;5095429;28;20122;-69
2021/03/14 05:25:28;;;;;;;16.00;2.00;;;5.40;99.90;;;;;;5095360;28;20074;-70
2021/03/14 05:27:55;;;;;;;12.48;1.73;;;5.40;99.90;;;;;;5094142;28;20051;-69
2021/03/14 05:30:21;;;;;;;13.23;1.70;;;5.50;99.90;;;;;;5095196;28;20039;-70
2021/03/14 05:32:48;;;;;;;21.77;4.57;;;5.50;99.90;;;;;;5095159;28;20023;-70
2021/03/14 05:35:14;;;;;;;13.55;1.83;;;5.50;99.90;;;;;;5093624;28;20035;-70
2021/03/14 05:37:40;;;;;;;10.38;1.67;;;5.60;99.90;;;;;;5094942;28;20638;-70
2021/03/14 05:40:06;;;;;;;15.38;2.63;;;5.60;99.90;;;;;;5094556;28;20059;-70
2021/03/14 05:42:33;;;;;;;12.70;1.65;;;5.60;99.90;;;;;;5094351;28;20425;-70
2021/03/14 05:44:59;;;;;;;12.45;2.47;;;5.60;99.90;;;;;;5094429;28;20123;-70
2021/03/14 05:47:25;;;;;;;26.70;4.30;;;5.70;99.90;;;;;;5094505;28;20028;-70
2021/03/14 05:49:51;;;;;;;8.20;1.85;;;5.60;99.90;;;;;;5093975;28;20035;-70
2021/03/14 05:52:18;;;;;;;13.18;1.70;;;5.70;99.90;;;;;;5094548;28;20483;-70
2021/03/14 05:54:45;;;;;;;9.75;1.95;;;5.70;99.90;;;;;;5094106;28;20020;-70
2021/03/14 05:57:12;;;;;;;16.13;2.53;;;5.70;99.90;;;;;;5094107;28;20137;-69
2021/03/14 05:59:39;;;;;;;8.40;1.70;;;5.70;99.90;;;;;;5094360;28;20024;-70
2021/03/14 06:02:06;;;;;;;13.15;1.92;;;5.70;99.90;;;;;;5093492;28;20034;-69
2021/03/14 06:04:32;;;;;;;8.15;1.77;;;5.70;99.90;;;;;;5094156;28;20036;-69
2021/03/14 06:06:58;;;;;;;10.52;2.10;;;5.60;99.90;;;;;;5093498;28;20048;-69
2021/03/14 06:09:23;;;;;;;10.70;2.00;;;5.70;99.90;;;;;;5093592;28;20031;-70
2021/03/14 06:11:49;;;;;;;16.38;2.50;;;5.70;99.90;;;;;;5099198;28;20023;-70
2021/03/14 06:14:15;;;;;;;14.23;2.53;;;5.70;99.90;;;;;;5102766;28;20031;-70
2021/03/14 06:16:41;;;;;;;13.82;1.95;;;5.80;99.90;;;;;;5093488;28;20035;-70
2021/03/14 06:19:07;;;;;;;15.02;2.85;;;5.80;99.90;;;;;;5093806;28;20020;-71
2021/03/14 06:21:33;;;;;;;15.55;2.42;;;5.80;99.90;;;;;;5094103;28;20039;-70
2021/03/14 06:24:00;;;;;;;15.70;2.88;;;5.80;99.90;;;;;;5093277;28;20016;-70
2021/03/14 06:26:45;;;;;;;8.63;2.60;;;5.80;99.90;;;;;;5093849;28;20028;-70
2021/03/14 06:29:16;;;;;;;11.32;2.15;;;5.80;99.90;;;;;;5092971;28;20028;-70
2021/03/14 06:31:55;;;;;;;12.93;2.67;;;5.90;99.90;;;;;;5101846;28;20050;-70
2021/03/14 06:34:29;;;;;;;16.20;4.80;;;5.90;99.90;;;;;;5096857;28;20081;-70
2021/03/14 06:37:15;;;;;;;6.80;2.33;;;5.90;99.90;;;;;;5093432;28;20106;-70
2021/03/14 06:39:44;;;;;;;20.75;2.92;;;6.00;99.90;;;;;;5104648;28;20027;-70
2021/03/14 06:42:10;;;;;;;14.68;3.03;;;5.90;99.90;;;;;;5094090;28;20020;-70
2021/03/14 06:44:37;;;;;;;15.65;3.72;;;6.00;99.90;;;;;;5098325;28;20030;-70
2021/03/14 06:47:07;;;;;;;10.40;2.55;;;5.90;99.90;;;;;;5111987;27;20036;-70
2021/03/14 06:49:38;;;;;;;14.88;3.08;;;5.90;99.90;;;;;;5100267;28;20069;-69
2021/03/14 06:52:05;;;;;;;11.38;2.30;;;5.90;99.90;;;;;;5093602;28;20024;-70
2021/03/14 06:54:40;;;;;;;11.85;3.22;;;5.90;99.90;;;;;;5102871;28;20031;-70
2021/03/14 06:57:15;;;;;;;9.70;2.30;;;5.90;99.90;;;;;;5101674;28;20071;-69
2021/03/14 06:59:50;;;;;;;10.27;3.35;;;5.90;99.90;;;;;;5098569;28;20110;-69
2021/03/14 07:02:18;;;;;;;9.82;2.67;;;6.00;99.90;;;;;;5110858;28;20494;-70
2021/03/14 07:04:46;;;;;;;16.98;3.88;;;6.00;99.90;;;;;;5105409;28;20024;-70
2021/03/14 07:07:14;;;;;;;9.80;3.15;;;6.10;99.90;;;;;;5096482;28;20051;-70
2021/03/14 07:09:41;;;;;;;12.43;2.97;;;6.10;99.90;;;;;;5108334;28;20065;-70
2021/03/14 07:12:15;;;;;;;11.50;4.35;;;6.20;99.90;;;;;;5107060;28;20090;-70
2021/03/14 07:14:41;;;;;;;18.15;5.03;;;6.20;99.90;;;;;;5110953;28;20023;-70
2021/03/14 07:17:27;;;;;;;13.52;3.72;;;6.20;99.90;;;;;;5107818;28;20426;-70
2021/03/14 07:20:04;;;;;;;9.10;3.15;;;6.20;99.90;;;;;;5103999;27;20032;-70
2021/03/14 07:22:30;;;;;;;10.77;5.18;;;6.30;99.90;;;;;;5100967;28;20063;-70
2021/03/14 07:24:55;;;;;;;13.38;4.20;;;6.30;99.90;;;;;;5109042;28;20055;-70
2021/03/14 07:27:24;;;;;;;17.60;4.20;;;6.30;99.90;;;;;;5106976;28;20036;-69
2021/03/14 07:29:52;;;;;;;23.27;4.82;;;6.30;99.90;;;;;;5111995;28;20365;-69
2021/03/14 07:32:19;;;;;;;14.95;4.18;;;6.40;99.90;;;;;;5108157;28;20023;-69
2021/03/14 07:34:44;;;;;;;10.82;4.00;;;6.40;99.90;;;;;;5105088;28;20021;-69
2021/03/14 07:37:16;;;;;;;8.48;4.18;;;6.40;99.90;;;;;;5106034;28;20032;-69
2021/03/14 07:39:45;;;;;;;11.90;4.60;;;6.50;99.90;;;;;;5110234;28;20073;-70
2021/03/14 07:42:12;;;;;;;11.98;4.70;;;6.50;99.90;;;;;;5105849;28;20052;-71
2021/03/14 07:44:38;;;;;;;15.50;5.07;;;6.50;99.90;;;;;;5107474;28;20031;-70
2021/03/14 07:47:04;;;;;;;9.23;4.35;;;6.60;99.90;;;;;;5106523;28;20032;-70
2021/03/14 07:49:30;;;;;;;14.07;4.55;;;6.70;99.90;;;;;;5109497;28;20023;-70
2021/03/14 07:52:03;;;;;;;12.88;4.78;;;6.80;99.90;;;;;;5111526;28;20020;-70
2021/03/14 07:54:42;;;;;;;15.93;5.43;;;6.90;99.90;;;;;;5111005;28;21566;-70
2021/03/14 07:57:09;;;;;;;18.98;5.35;;;6.90;99.90;;;;;;5109901;28;20047;-70
2021/03/14 07:59:35;;;;;;;9.90;4.68;;;6.90;99.90;;;;;;5110609;28;20027;-70
2021/03/14 08:02:16;;;;;;;9.18;4.00;;;6.90;99.90;;;;;;5109145;28;20050;-70
2021/03/14 08:04:49;;;;;;;12.57;4.70;;;6.90;99.90;;;;;;5109494;28;20019;-70
2021/03/14 08:07:15;;;;;;;15.93;5.55;;;7.00;99.90;;;;;;5106024;28;20448;-71
2021/03/14 08:09:42;;;;;;;11.52;4.03;;;6.90;99.90;;;;;;5106242;28;20027;-70
2021/03/14 08:12:25;;;;;;;23.38;4.55;;;6.90;99.90;;;;;;5110981;28;20486;-70
2021/03/14 08:14:58;;;;;;;15.20;4.35;;;7.00;99.90;;;;;;5109443;28;20031;-70
2021/03/14 08:17:34;;;;;;;11.88;3.70;;;7.00;99.90;;;;;;5112666;28;20028;-69
2021/03/14 08:20:00;;;;;;;10.40;3.47;;;7.10;99.90;;;;;;5105351;28;20032;-69
2021/03/14 08:22:38;;;;;;;10.75;3.33;;;7.10;99.90;;;;;;5109512;28;20475;-71
2021/03/14 08:25:25;;;;;;;7.40;3.70;;;7.10;99.90;;;;;;5106510;28;20110;-74
2021/03/14 08:28:11;;;;;;;13.27;3.28;;;7.20;99.90;;;;;;5107500;28;20447;-73
2021/03/14 08:30:37;;;;;;;7.10;2.83;;;7.20;99.90;;;;;;5102326;28;20107;-73
2021/03/14 08:33:22;;;;;;;17.63;3.65;;;7.30;99.90;;;;;;5105994;28;20106;-74
2021/03/14 08:35:50;;;;;;;11.27;3.47;;;7.40;99.90;;;;;;5103739;28;20388;-73
2021/03/14 08:38:24;;;;;;;15.10;3.00;;;7.40;99.90;;;;;;5104614;28;20066;-72
2021/03/14 08:41:10;;;;;;;7.90;3.10;;;7.50;99.90;;;;;;5090950;28;20028;-73
2021/03/14 08:43:44;;;;;;;14.48;3.45;;;7.50;99.90;;;;;;5090550;28;20028;-75
2021/03/14 08:46:11;;;;;;;6.95;2.53;;;7.60;99.90;;;;;;5093987;28;20036;-73
2021/03/14 08:48:37;;;;;;;19.67;3.03;;;7.70;99.90;;;;;;5102277;28;20544;-73
2021/03/14 08:51:11;;;;;;;23.00;2.78;;;7.60;99.90;;;;;;5104746;28;20019;-73
2021/03/14 08:53:37;;;;;;;13.68;2.88;;;7.70;99.90;;;;;;5110675;28;20020;-74
2021/03/14 08:56:05;;;;;;;6.57;2.08;;;7.70;99.90;;;;;;5108412;28;20047;-73
2021/03/14 08:58:31;;;;;;;9.50;2.78;;;7.70;99.90;;;;;;5112018;28;20035;-73
2021/03/14 09:01:05;;;;;;;15.30;4.45;;;7.70;99.90;;;;;;5108489;28;20111;-75
2021/03/14 09:03:38;;;;;;;12.48;2.90;;;7.70;99.90;;;;;;5112485;28;20102;-73
2021/03/14 09:06:13;;;;;;;15.48;2.50;;;7.70;99.90;;;;;;5101057;28;20020;-72
2021/03/14 09:08:39;;;;;;;18.67;3.20;;;7.80;99.90;;;;;;5094767;28;20440;-73
2021/03/14 09:11:04;;;;;;;14.20;2.97;;;7.80;99.90;;;;;;5107926;28;20160;-72
2021/03/14 09:13:30;;;;;;;10.20;2.70;;;7.90;99.90;;;;;;5106402;28;20094;-73
2021/03/14 09:15:55;;;;;;;13.30;3.10;;;7.90;99.90;;;;;;5098917;28;20044;-73
2021/03/14 09:18:29;;;;;;;18.27;2.78;;;7.80;99.90;;;;;;5095194;28;20016;-73
2021/03/14 09:21:00;;;;;;;11.23;2.83;;;7.80;99.90;;;;;;5098770;28;20491;-73
2021/03/14 09:23:26;;;;;;;8.35;2.38;;;7.80;99.90;;;;;;5105758;28;20080;-73
2021/03/14 09:25:53;;;;;;;13.32;2.65;;;7.80;99.90;;;;;;5102045;28;20139;-75
2021/03/14 09:28:18;;;;;;;7.47;2.05;;;7.80;99.90;;;;;;5102720;28;20035;-73
2021/03/14 09:30:44;;;;;;;11.13;3.03;;;7.80;99.90;;;;;;5109200;28;20049;-72
2021/03/14 09:33:12;;;;;;;14.88;2.95;;;7.90;99.90;;;;;;5095135;28;20027;-73
2021/03/14 09:35:38;;;;;;;8.02;2.38;;;7.90;99.90;;;;;;5105890;28;20051;-72
2021/03/14 09:38:08;;;;;;;16.27;3.22;;;8.00;99.90;;;;;;5094448;28;20016;-73
2021/03/14 09:40:35;;;;;;;11.18;2.97;;;8.10;99.90;;;;;;5096647;28;20653;-74
2021/03/14 09:43:15;;;;;;;19.95;2.85;;;8.20;99.90;;;;;;5104727;28;20549;-74
2021/03/14 09:45:46;;;;;;;15.82;2.20;;;8.20;99.90;;;;;;5105650;28;20495;-71
2021/03/14 09:48:16;;;;;;;9.65;3.00;;;8.20;99.90;;;;;;5093302;28;20044;-74
2021/03/14 09:50:42;;;;;;;11.60;2.45;;;8.30;99.90;;;;;;5101808;28;20031;-72
2021/03/14 09:53:09;;;;;;;12.80;2.45;;;8.40;99.90;;;;;;5103751;28;20031;-72
2021/03/14 09:55:40;;;;;;;12.80;2.47;;;8.40;99.90;;;;;;5102578;28;20103;-74
2021/03/14 09:58:14;;;;;;;15.02;2.58;;;8.30;99.90;;;;;;5106278;28;20036;-74
2021/03/14 10:00:41;;;;;;;13.40;2.50;;;8.30;99.90;;;;;;5106651;28;20032;-74
2021/03/14 10:03:13;;;;;;;8.98;2.20;;;8.30;99.90;;;;;;5107145;28;20031;-74
2021/03/14 10:05:40;;;;;;;17.08;2.60;;;8.40;99.90;;;;;;5105436;28;20032;-73
2021/03/14 10:08:06;;;;;;;6.82;3.03;;;8.40;99.90;;;;;;5106463;28;20522;-75
2021/03/14 10:10:34;;;;;;;6.70;2.45;;;8.50;99.90;;;;;;5102673;28;20036;-74
2021/03/14 10:13:03;;;;;;;4.05;1.98;;;8.50;99.90;;;;;;5099487;28;20070;-73
2021/03/14 10:15:28;;;;;;;19.15;3.17;;;8.50;99.90;;;;;;5104428;28;20094;-73
2021/03/14 10:17:54;;;;;;;9.40;2.53;;;8.50;99.90;;;;;;5109832;28;20114;-74
2021/03/14 10:20:21;;;;;;;4.82;1.75;;;8.60;99.90;;;;;;5109610;28;20024;-74
2021/03/14 10:22:58;;;;;;;9.38;2.08;;;8.50;99.90;;;;;;5103566;28;20035;-73
2021/03/14 10:25:29;;;;;;;13.45;2.50;;;8.50;99.90;;;;;;5101385;28;20036;-72
2021/03/14 10:28:11;;;;;;;5.95;1.67;;;8.60;99.90;;;;;;5103529;28;20138;-73
2021/03/14 10:30:41;;;;;;;11.27;2.03;;;8.60;99.90;;;;;;5098695;28;20019;-73
2021/03/14 10:33:07;;;;;;;8.37;2.30;;;8.60;99.90;;;;;;5100246;28;20059;-73
2021/03/14 10:35:33;;;;;;;6.47;1.85;;;8.60;99.90;;;;;;5100702;28;20021;-74
2021/03/14 10:38:20;;;;;;;8.60;1.98;;;8.50;99.90;;;;;;5103295;28;20035;-73
2021/03/14 10:40:46;;;;;;;9.73;2.13;;;8.50;99.90;;;;;;5101975;27;20030;-73
2021/03/14 10:43:44;;;;;;;21.00;3.63;;;8.50;99.90;;;;;;5102726;28;20024;-73
2021/03/14 10:46:10;;;;;;;12.13;2.17;;;8.50;99.90;;;;;;5085964;28;20517;-73
2021/03/14 10:48:35;;;;;;;13.63;2.45;;;8.60;99.90;;;;;;5101774;28;20059;-72
2021/03/14 10:51:06;;;;;;;11.85;2.33;;;8.60;99.90;;;;;;5099737;28;20019;-73
2021/03/14 10:53:32;;;;;;;7.40;1.95;;;8.70;99.90;;;;;;5112600;28;20039;-72
2021/03/14 10:56:18;;;;;;;9.95;1.80;;;8.70;99.90;;;;;;5108655;28;20020;-73
2021/03/14 10:58:44;;;;;;;14.40;2.25;;;8.70;99.90;;;;;;5096540;28;20525;-73
2021/03/14 11:01:15;;;;;;;5.97;1.35;;;8.60;99.90;;;;;;5101798;28;20098;-74
2021/03/14 11:03:41;;;;;;;8.65;2.30;;;8.60;99.90;;;;;;5101459;28;20121;-74
2021/03/14 11:06:08;;;;;;;18.35;3.20;;;8.60;99.90;;;;;;5100966;28;20469;-73
2021/03/14 11:08:56;;;;;;;3.53;1.33;;;8.70;99.90;;;;;;5099353;28;20075;-73
2021/03/14 11:11:42;;;;;;;9.05;1.90;;;8.80;99.90;;;;;;5098870;28;20016;-73
2021/03/14 11:14:38;;;;;;;4.38;1.33;;;8.80;99.90;;;;;;5101924;28;20024;-73
2021/03/14 11:17:07;;;;;;;12.20;1.70;;;8.80;99.90;;;;;;5099291;28;20070;-74
2021/03/14 11:19:35;;;;;;;6.28;1.92;;;8.70;99.90;;;;;;5101217;28;20020;-73
2021/03/14 11:22:01;;;;;;;5.20;2.13;;;8.70;99.90;;;;;;5103510;28;20020;-73
2021/03/14 11:24:26;;;;;;;15.85;2.10;;;8.70;99.90;;;;;;5103094;28;20471;-73
2021/03/14 11:26:52;;;;;;;11.20;3.15;;;8.80;99.90;;;;;;5096660;28;20509;-73
2021/03/14 11:29:18;;;;;;;10.73;1.67;;;8.70;99.90;;;;;;5101496;28;20030;-74
2021/03/14 11:31:43;;;;;;;11.27;1.92;;;8.60;99.90;;;;;;5095952;28;20024;-74
2021/03/14 11:34:09;;;;;;;14.63;2.42;;;8.50;99.90;;;;;;5100055;28;20051;-73
2021/03/14 11:36:34;;;;;;;13.18;2.83;;;8.50;99.90;;;;;;5105863;28;20020;-74
2021/03/14 11:39:00;;;;;;;16.23;3.90;;;8.50;99.90;;;;;;5100286;28;20027;-73
2021/03/14 11:41:26;;;;;;;13.52;2.72;;;8.50;99.90;;;;;;5097985;28;20502;-73
2021/03/14 11:43:51;;;;;;;9.48;1.88;;;8.50;99.90;;;;;;5099050;28;20059;-74
2021/03/14 11:46:17;;;;;;;8.73;2.13;;;8.60;99.90;;;;;;5101469;28;20104;-74
2021/03/14 11:48:43;;;;;;;13.98;3.80;;;8.60;99.90;;;;;;5102369;28;20055;-73
2021/03/14 11:51:08;;;;;;;9.32;1.67;;;8.60;99.90;;;;;;5094400;28;20043;-73
2021/03/14 11:53:34;;;;;;;11.75;2.20;;;8.70;99.90;;;;;;5097617;28;20032;-73
2021/03/14 11:56:00;;;;;;;11.85;2.15;;;8.80;99.90;;;;;;5098015;28;20118;-74
2021/03/14 11:58:25;;;;;;;9.65;1.70;;;8.90;99.90;;;;;;5098509;28;20059;-73
2021/03/14 12:00:51;;;;;;;7.93;1.73;;;8.90;99.90;;;;;;5091937;28;20119;-75
2021/03/14 12:03:17;;;;;;;10.20;1.77;;;8.80;99.90;;;;;;5102231;28;20562;-72
2021/03/14 12:05:43;;;;;;;5.57;2.00;;;8.80;99.90;;;;;;5103202;28;20023;-74
2021/03/14 12:08:09;;;;;;;16.25;1.77;;;9.30;99.90;;;;;;5100122;28;20049;-73
2021/03/14 12:10:35;;;;;;;7.32;1.65;;;8.90;99.90;;;;;;5102842;28;20483;-76
2021/03/14 12:13:01;;;;;;;9.85;1.63;;;8.90;99.90;;;;;;5096754;28;20024;-74
2021/03/14 12:15:26;;;;;;;17.05;3.63;;;8.90;99.90;;;;;;5091679;28;20101;-74
2021/03/14 12:17:52;;;;;;;8.73;1.58;;;8.90;99.90;;;;;;5105579;28;20424;-73
2021/03/14 12:20:18;;;;;;;10.90;1.95;;;8.90;99.90;;;;;;5098299;28;20073;-74
2021/03/14 12:22:43;;;;;;;9.50;2.17;;;8.80;99.90;;;;;;5108134;28;20031;-75
2021/03/14 12:25:09;;;;;;;12.35;2.30;;;8.90;99.90;;;;;;5105597;28;20391;-75
2021/03/14 12:27:35;;;;;;;8.38;1.65;;;8.90;99.90;;;;;;5097684;28;20032;-74
2021/03/14 12:30:01;;;;;;;10.23;2.00;;;8.90;99.90;;;;;;5095948;28;20481;-73
2021/03/14 12:32:26;;;;;;;8.77;1.23;;;8.90;99.90;;;;;;5100014;28;20030;-74
2021/03/14 12:34:52;;;;;;;10.00;1.85;;;8.90;99.90;;;;;;5097306;28;20470;-74
2021/03/14 12:37:17;;;;;;;8.48;1.88;;;8.80;99.90;;;;;;5109072;28;20069;-74
2021/03/14 12:39:43;;;;;;;9.05;1.63;;;8.80;99.90;;;;;;5105209;28;20040;-75
2021/03/14 12:42:08;;;;;;;19.45;2.47;;;8.90;99.90;;;;;;5095578;28;20081;-75
2021/03/14 12:44:34;;;;;;;5.55;1.30;;;8.80;99.90;;;;;;5100007;28;20107;-75
2021/03/14 12:47:00;;;;;;;6.45;1.63;;;8.70;99.90;;;;;;5098916;28;20040;-75
2021/03/14 12:49:25;;;;;;;7.55;2.75;;;8.70;99.90;;;;;;5099094;28;20020;-74
2021/03/14 12:51:51;;;;;;;7.03;1.85;;;8.60;99.90;;;;;;5110511;28;20059;-75
2021/03/14 12:54:16;;;;;;;6.70;1.42;;;8.50;99.90;;;;;;5097959;28;20411;-73
2021/03/14 12:56:42;;;;;;;7.15;1.40;;;8.50;99.90;;;;;;5098832;28;20516;-73